sensor_id;sensor_type;location;lat;lon;timestamp;pressure;altitude;pressure_sealevel;temperature;humidity
43161;BME280;40968;52.342;5.528;2022-12-04T00:01:07;102014.34;;;0.03;73.12
43161;BME280;40968;52.342;5.528;2022-12-04T00:03:34;101891.38;;;-0.72;72.85
43161;BME280;40968;52.342;5.528;2022-12-04T00:06:03;101986.50;;;-0.17;72.94
43161;BME280;40968;52.342;5.528;2022-12-04T00:08:29;102010.81;;;0.08;72.85
43161;BME280;40968;52.342;5.528;2022-12-04T00:10:56;101947.03;;;-0.26;72.51
43161;BME280;40968;52.342;5.528;2022-12-04T00:13:22;101737.81;;;-1.53;72.79
43161;BME280;40968;52.342;5.528;2022-12-04T00:15:50;101918.28;;;-0.45;72.93
43161;BME280;40968;52.342;5.528;2022-12-04T00:18:17;101774.38;;;-1.25;72.78
43161;BME280;40968;52.342;5.528;2022-12-04T00:20:44;101891.22;;;-0.59;72.70
43161;BME280;40968;52.342;5.528;2022-12-04T00:23:10;101689.88;;;-1.80;72.68
43161;BME280;40968;52.342;5.528;2022-12-04T00:25:37;102016.19;;;-0.03;72.47
43161;BME280;40968;52.342;5.528;2022-12-04T00:28:04;101834.50;;;-0.90;72.50
43161;BME280;40968;52.342;5.528;2022-12-04T00:30:30;101676.75;;;-1.83;72.34
43161;BME280;40968;52.342;5.528;2022-12-04T00:32:58;101982.84;;;-0.05;72.24
43161;BME280;40968;52.342;5.528;2022-12-04T00:35:25;102002.94;;;0.04;72.38
43161;BME280;40968;52.342;5.528;2022-12-04T00:37:52;101944.53;;;-0.34;72.71
43161;BME280;40968;52.342;5.528;2022-12-04T00:40:18;102009.09;;;0.04;73.05
43161;BME280;40968;52.342;5.528;2022-12-04T00:42:45;102027.53;;;0.03;72.93
43161;BME280;40968;52.342;5.528;2022-12-04T00:45:11;101802.28;;;-1.12;72.88
43161;BME280;40968;52.342;5.528;2022-12-04T00:47:38;101778.72;;;-1.26;72.45
43161;BME280;40968;52.342;5.528;2022-12-04T00:50:07;101750.88;;;-1.44;72.41
43161;BME280;40968;52.342;5.528;2022-12-04T00:52:34;101959.47;;;-0.38;72.59
43161;BME280;40968;52.342;5.528;2022-12-04T00:55:00;101661.09;;;-1.95;72.74
43161;BME280;40968;52.342;5.528;2022-12-04T00:57:27;101995.94;;;-0.01;73.06
43161;BME280;40968;52.342;5.528;2022-12-04T00:59:55;101705.53;;;-1.69;72.92
43161;BME280;40968;52.342;5.528;2022-12-04T01:02:21;101991.56;;;0.00;72.95
43161;BME280;40968;52.342;5.528;2022-12-04T01:04:48;101965.38;;;-0.15;73.13
43161;BME280;40968;52.342;5.528;2022-12-04T01:07:16;101997.72;;;0.01;73.65
43161;BME280;40968;52.342;5.528;2022-12-04T01:09:43;101817.13;;;-1.03;73.33
43161;BME280;40968;52.342;5.528;2022-12-04T01:12:10;101720.31;;;-1.57;73.27
43161;BME280;40968;52.342;5.528;2022-12-04T01:14:36;101896.44;;;-0.53;73.26
43161;BME280;40968;52.342;5.528;2022-12-04T01:17:03;101668.91;;;-1.88;72.84
43161;BME280;40968;52.342;5.528;2022-12-04T01:19:29;101988.91;;;0.02;73.17
43161;BME280;40968;52.342;5.528;2022-12-04T01:21:56;101620.06;;;-2.09;72.92
43161;BME280;40968;52.342;5.528;2022-12-04T01:24:24;101862.56;;;-0.87;73.58
43161;BME280;40968;52.342;5.528;2022-12-04T01:26:51;101929.63;;;-0.40;73.00
43161;BME280;40968;52.342;5.528;2022-12-04T01:29:17;101960.31;;;-0.36;73.52
43161;BME280;40968;52.342;5.528;2022-12-04T01:31:44;101978.44;;;-0.05;73.11
43161;BME280;40968;52.342;5.528;2022-12-04T01:34:10;101988.97;;;-0.05;73.01
43161;BME280;40968;52.342;5.528;2022-12-04T01:36:37;101926.28;;;-0.51;73.68
43161;BME280;40968;52.342;5.528;2022-12-04T01:39:04;101917.38;;;-0.42;73.82
43161;BME280;40968;52.342;5.528;2022-12-04T01:41:32;101734.28;;;-1.49;73.62
43161;BME280;40968;52.342;5.528;2022-12-04T01:44:11;101968.78;;;-0.06;73.53
43161;BME280;40968;52.342;5.528;2022-12-04T01:46:38;101851.97;;;-0.79;73.39
43161;BME280;40968;52.342;5.528;2022-12-04T01:49:08;101859.88;;;-0.81;73.90
43161;BME280;40968;52.342;5.528;2022-12-04T01:51:38;101845.84;;;-0.83;73.94
43161;BME280;40968;52.342;5.528;2022-12-04T01:54:08;101894.69;;;-0.54;73.46
43161;BME280;40968;52.342;5.528;2022-12-04T01:56:39;101896.38;;;-0.50;73.93
43161;BME280;40968;52.342;5.528;2022-12-04T01:59:07;101709.78;;;-1.57;73.73
43161;BME280;40968;52.342;5.528;2022-12-04T02:01:38;101966.06;;;0.01;74.27
43161;BME280;40968;52.342;5.528;2022-12-04T02:04:07;101849.19;;;-0.65;74.09
43161;BME280;40968;52.342;5.528;2022-12-04T02:06:34;101817.97;;;-0.99;73.66
43161;BME280;40968;52.342;5.528;2022-12-04T02:09:00;101789.94;;;-1.07;73.63
43161;BME280;40968;52.342;5.528;2022-12-04T02:11:34;101694.09;;;-1.67;73.47
43161;BME280;40968;52.342;5.528;2022-12-04T02:14:10;101640.97;;;-1.96;73.36
43161;BME280;40968;52.342;5.528;2022-12-04T02:16:44;101979.28;;;-0.04;73.31
43161;BME280;40968;52.342;5.528;2022-12-04T02:19:27;101732.47;;;-1.47;73.52
43161;BME280;40968;52.342;5.528;2022-12-04T02:21:59;101688.03;;;-1.72;73.57
43161;BME280;40968;52.342;5.528;2022-12-04T02:24:39;101918.25;;;-0.43;73.62
43161;BME280;40968;52.342;5.528;2022-12-04T02:27:17;101809.28;;;-1.11;73.69
43161;BME280;40968;52.342;5.528;2022-12-04T02:29:53;101852.06;;;-0.89;73.87
43161;BME280;40968;52.342;5.528;2022-12-04T02:32:27;101984.63;;;-0.09;74.16
43161;BME280;40968;52.342;5.528;2022-12-04T02:35:00;101948.78;;;-0.24;73.85
43161;BME280;40968;52.342;5.528;2022-12-04T02:37:30;101872.00;;;-0.68;74.09
43161;BME280;40968;52.342;5.528;2022-12-04T02:40:02;101637.50;;;-2.03;73.96
43161;BME280;40968;52.342;5.528;2022-12-04T02:42:33;101804.00;;;-1.08;74.29
43161;BME280;40968;52.342;5.528;2022-12-04T02:45:05;101907.72;;;-0.43;73.73
43161;BME280;40968;52.342;5.528;2022-12-04T02:47:35;101914.66;;;-0.35;73.70
43161;BME280;40968;52.342;5.528;2022-12-04T02:50:07;101969.66;;;-0.07;74.11
43161;BME280;40968;52.342;5.528;2022-12-04T02:52:37;101889.47;;;-0.59;74.20
43161;BME280;40968;52.342;5.528;2022-12-04T02:55:09;101559.97;;;-2.44;74.32
43161;BME280;40968;52.342;5.528;2022-12-04T02:57:44;101965.22;;;-0.02;73.92
43161;BME280;40968;52.342;5.528;2022-12-04T03:00:16;101971.41;;;-0.03;73.84
43161;BME280;40968;52.342;5.528;2022-12-04T03:02:45;101841.41;;;-0.78;74.05
43161;BME280;40968;52.342;5.528;2022-12-04T03:05:15;101870.06;;;-0.52;74.05
43161;BME280;40968;52.342;5.528;2022-12-04T03:07:46;101865.69;;;-0.51;73.89
43161;BME280;40968;52.342;5.528;2022-12-04T03:10:16;101889.31;;;-0.45;73.89
43161;BME280;40968;52.342;5.528;2022-12-04T03:12:46;101743.63;;;-1.20;73.89
43161;BME280;40968;52.342;5.528;2022-12-04T03:15:20;101945.84;;;0.01;74.29
43161;BME280;40968;52.342;5.528;2022-12-04T03:17:52;101924.16;;;-0.21;73.93
43161;BME280;40968;52.342;5.528;2022-12-04T03:20:22;101956.38;;;0.03;74.10
43161;BME280;40968;52.342;5.528;2022-12-04T03:22:54;101926.72;;;-0.15;74.20
43161;BME280;40968;52.342;5.528;2022-12-04T03:25:28;101958.13;;;0.04;73.86
43161;BME280;40968;52.342;5.528;2022-12-04T03:27:59;101952.88;;;0.02;73.79
43161;BME280;40968;52.342;5.528;2022-12-04T03:30:32;101693.97;;;-1.51;74.10
43161;BME280;40968;52.342;5.528;2022-12-04T03:33:02;101886.56;;;-0.34;74.02
43161;BME280;40968;52.342;5.528;2022-12-04T03:35:34;101867.50;;;-0.56;74.19
43161;BME280;40968;52.342;5.528;2022-12-04T03:38:06;101952.91;;;0.01;74.03
43161;BME280;40968;52.342;5.528;2022-12-04T03:40:37;101849.06;;;-0.56;74.43
43161;BME280;40968;52.342;5.528;2022-12-04T03:43:11;101898.00;;;-0.35;74.35
43161;BME280;40968;52.342;5.528;2022-12-04T03:45:43;101885.59;;;-0.28;74.24
43161;BME280;40968;52.342;5.528;2022-12-04T03:48:16;101941.41;;;0.05;74.50
43161;BME280;40968;52.342;5.528;2022-12-04T03:50:50;101692.97;;;-1.39;74.55
43161;BME280;40968;52.342;5.528;2022-12-04T03:53:17;101941.38;;;0.06;74.71
43161;BME280;40968;52.342;5.528;2022-12-04T03:55:51;101673.81;;;-1.51;74.24
43161;BME280;40968;52.342;5.528;2022-12-04T03:58:24;101932.66;;;0.03;74.38
43161;BME280;40968;52.342;5.528;2022-12-04T04:00:56;101852.47;;;-0.48;74.50
43161;BME280;40968;52.342;5.528;2022-12-04T04:03:27;101768.78;;;-0.97;74.60
43161;BME280;40968;52.342;5.528;2022-12-04T04:05:57;101868.22;;;-0.42;74.68
43161;BME280;40968;52.342;5.528;2022-12-04T04:08:30;101945.06;;;-0.06;74.83
43161;BME280;40968;52.342;5.528;2022-12-04T04:11:05;101858.69;;;-0.54;74.95
43161;BME280;40968;52.342;5.528;2022-12-04T04:13:37;101824.66;;;-0.71;74.82
43161;BME280;40968;52.342;5.528;2022-12-04T04:16:27;101875.25;;;-0.44;74.70
43161;BME280;40968;52.342;5.528;2022-12-04T04:19:14;101860.50;;;-0.57;75.31
43161;BME280;40968;52.342;5.528;2022-12-04T04:22:02;101894.41;;;-0.29;75.04
43161;BME280;40968;52.342;5.528;2022-12-04T04:24:50;101815.03;;;-0.73;75.05
43161;BME280;40968;52.342;5.528;2022-12-04T04:27:18;101939.75;;;-0.04;75.10
43161;BME280;40968;52.342;5.528;2022-12-04T04:29:45;101725.38;;;-1.36;75.24
43161;BME280;40968;52.342;5.528;2022-12-04T04:32:16;101882.22;;;-0.40;75.21
43161;BME280;40968;52.342;5.528;2022-12-04T04:34:51;101940.69;;;-0.05;74.69
43161;BME280;40968;52.342;5.528;2022-12-04T04:37:26;101911.94;;;-0.27;74.66
43161;BME280;40968;52.342;5.528;2022-12-04T04:40:00;101946.81;;;-0.05;74.67
43161;BME280;40968;52.342;5.528;2022-12-04T04:42:34;101945.03;;;-0.03;74.97
43161;BME280;40968;52.342;5.528;2022-12-04T04:45:05;101938.00;;;-0.04;75.17
43161;BME280;40968;52.342;5.528;2022-12-04T04:47:40;101863.97;;;-0.57;75.44
43161;BME280;40968;52.342;5.528;2022-12-04T04:50:11;101706.19;;;-1.45;75.33
43161;BME280;40968;52.342;5.528;2022-12-04T04:52:42;101893.56;;;-0.33;75.32
43161;BME280;40968;52.342;5.528;2022-12-04T04:55:11;101934.56;;;-0.09;75.36
43161;BME280;40968;52.342;5.528;2022-12-04T04:57:39;101944.94;;;0.04;75.11
43161;BME280;40968;52.342;5.528;2022-12-04T05:00:07;101849.03;;;-0.53;75.11
43161;BME280;40968;52.342;5.528;2022-12-04T05:02:37;101626.84;;;-1.85;75.16
43161;BME280;40968;52.342;5.528;2022-12-04T05:05:05;101940.53;;;0.03;75.44
43161;BME280;40968;52.342;5.528;2022-12-04T05:07:32;101896.91;;;-0.20;75.31
43161;BME280;40968;52.342;5.528;2022-12-04T05:09:58;101675.56;;;-1.51;75.12
43161;BME280;40968;52.342;5.528;2022-12-04T05:12:25;101858.66;;;-0.51;75.52
43161;BME280;40968;52.342;5.528;2022-12-04T05:14:52;101877.03;;;-0.46;75.36
43161;BME280;40968;52.342;5.528;2022-12-04T05:17:18;101739.19;;;-1.15;75.23
43161;BME280;40968;52.342;5.528;2022-12-04T05:19:46;101657.25;;;-1.60;75.21
43161;BME280;40968;52.342;5.528;2022-12-04T05:22:22;101837.66;;;-0.58;75.36
43161;BME280;40968;52.342;5.528;2022-12-04T05:24:48;101615.53;;;-1.94;74.75
43161;BME280;40968;52.342;5.528;2022-12-04T05:27:15;101952.91;;;-0.01;75.10
43161;BME280;40968;52.342;5.528;2022-12-04T05:29:42;101749.75;;;-1.21;75.18
43161;BME280;40968;52.342;5.528;2022-12-04T05:32:08;101952.88;;;0.02;75.59
43161;BME280;40968;52.342;5.528;2022-12-04T05:34:35;101947.78;;;-0.13;75.52
43161;BME280;40968;52.342;5.528;2022-12-04T05:37:03;101883.13;;;-0.42;75.46
43161;BME280;40968;52.342;5.528;2022-12-04T05:39:30;101901.47;;;-0.35;75.18
43161;BME280;40968;52.342;5.528;2022-12-04T05:41:57;101883.25;;;-0.52;75.15
43161;BME280;40968;52.342;5.528;2022-12-04T05:44:24;101707.97;;;-1.49;74.73
43161;BME280;40968;52.342;5.528;2022-12-04T05:46:50;101674.00;;;-1.71;75.04
43161;BME280;40968;52.342;5.528;2022-12-04T05:49:17;101949.44;;;-0.05;75.36
43161;BME280;40968;52.342;5.528;2022-12-04T05:51:43;101882.38;;;-0.52;75.15
43161;BME280;40968;52.342;5.528;2022-12-04T05:54:11;101963.50;;;-0.06;75.55
43161;BME280;40968;52.342;5.528;2022-12-04T05:56:38;101960.13;;;-0.19;75.61
43161;BME280;40968;52.342;5.528;2022-12-04T05:59:05;101640.03;;;-1.89;75.02
43161;BME280;40968;52.342;5.528;2022-12-04T06:01:31;101843.09;;;-0.71;74.88
43161;BME280;40968;52.342;5.528;2022-12-04T06:03:58;101945.09;;;-0.09;75.18
43161;BME280;40968;52.342;5.528;2022-12-04T06:06:25;101778.56;;;-1.09;75.34
43161;BME280;40968;52.342;5.528;2022-12-04T06:08:53;101761.16;;;-1.22;75.39
43161;BME280;40968;52.342;5.528;2022-12-04T06:11:24;101888.41;;;-0.42;75.67
43161;BME280;40968;52.342;5.528;2022-12-04T06:13:51;101863.13;;;-0.57;75.72
43161;BME280;40968;52.342;5.528;2022-12-04T06:16:20;101937.16;;;-0.06;75.55
43161;BME280;40968;52.342;5.528;2022-12-04T06:18:48;101674.84;;;-1.65;75.57
43161;BME280;40968;52.342;5.528;2022-12-04T06:21:16;101939.81;;;-0.07;75.73
43161;BME280;40968;52.342;5.528;2022-12-04T06:23:43;101948.56;;;-0.07;75.68
43161;BME280;40968;52.342;5.528;2022-12-04T06:26:10;101815.09;;;-0.79;75.74
43161;BME280;40968;52.342;5.528;2022-12-04T06:28:38;101884.84;;;-0.40;76.03
43161;BME280;40968;52.342;5.528;2022-12-04T06:31:06;101773.47;;;-1.23;75.87
43161;BME280;40968;52.342;5.528;2022-12-04T06:33:33;101716.69;;;-1.44;75.86
43161;BME280;40968;52.342;5.528;2022-12-04T06:36:02;101954.75;;;-0.08;76.05
43161;BME280;40968;52.342;5.528;2022-12-04T06:38:30;101824.84;;;-0.89;75.81
43161;BME280;40968;52.342;5.528;2022-12-04T06:40:57;101891.91;;;-0.43;76.07
43161;BME280;40968;52.342;5.528;2022-12-04T06:43:23;101953.91;;;-0.10;76.11
43161;BME280;40968;52.342;5.528;2022-12-04T06:45:59;101953.00;;;-0.09;76.24
43161;BME280;40968;52.342;5.528;2022-12-04T06:48:26;101688.00;;;-1.67;75.95
43161;BME280;40968;52.342;5.528;2022-12-04T06:50:57;101851.88;;;-0.75;76.43
43161;BME280;40968;52.342;5.528;2022-12-04T06:53:24;101892.81;;;-0.43;76.34
43161;BME280;40968;52.342;5.528;2022-12-04T06:55:51;101841.31;;;-0.70;76.20
43161;BME280;40968;52.342;5.528;2022-12-04T06:58:19;101932.09;;;-0.23;76.20
43161;BME280;40968;52.342;5.528;2022-12-04T07:00:46;101638.31;;;-1.93;75.98
43161;BME280;40968;52.342;5.528;2022-12-04T07:03:14;101901.63;;;-0.47;75.98
43161;BME280;40968;52.342;5.528;2022-12-04T07:05:41;101743.03;;;-1.50;76.28
43161;BME280;40968;52.342;5.528;2022-12-04T07:08:08;101858.81;;;-0.66;76.28
43161;BME280;40968;52.342;5.528;2022-12-04T07:10:35;101890.28;;;-0.52;76.10
43161;BME280;40968;52.342;5.528;2022-12-04T07:13:02;101970.66;;;-0.15;76.45
43161;BME280;40968;52.342;5.528;2022-12-04T07:15:28;101963.50;;;-0.03;76.63
43161;BME280;40968;52.342;5.528;2022-12-04T07:17:55;101961.75;;;-0.04;76.50
43161;BME280;40968;52.342;5.528;2022-12-04T07:20:23;101919.84;;;-0.27;76.75
43161;BME280;40968;52.342;5.528;2022-12-04T07:22:50;101981.00;;;0.02;76.82
43161;BME280;40968;52.342;5.528;2022-12-04T07:25:17;101912.03;;;-0.35;76.31
43161;BME280;40968;52.342;5.528;2022-12-04T07:27:44;101799.53;;;-0.98;76.80
43161;BME280;40968;52.342;5.528;2022-12-04T07:30:12;101964.28;;;0.03;76.99
43161;BME280;40968;52.342;5.528;2022-12-04T07:32:41;101838.72;;;-0.73;76.42
43161;BME280;40968;52.342;5.528;2022-12-04T07:35:08;101940.75;;;-0.13;76.56
43161;BME280;40968;52.342;5.528;2022-12-04T07:37:36;101725.50;;;-1.50;76.71
43161;BME280;40968;52.342;5.528;2022-12-04T07:40:03;101729.72;;;-1.33;76.54
43161;BME280;40968;52.342;5.528;2022-12-04T07:42:30;101966.03;;;0.04;76.68
43161;BME280;40968;52.342;5.528;2022-12-04T07:44:57;101970.47;;;0.02;76.51
43161;BME280;40968;52.342;5.528;2022-12-04T07:47:24;101928.59;;;-0.23;76.32
43161;BME280;40968;52.342;5.528;2022-12-04T07:49:51;101864.91;;;-0.61;76.86
43161;BME280;40968;52.342;5.528;2022-12-04T07:52:17;101912.06;;;-0.38;76.87
43161;BME280;40968;52.342;5.528;2022-12-04T07:54:45;101890.22;;;-0.49;76.62
43161;BME280;40968;52.342;5.528;2022-12-04T07:57:12;101674.94;;;-1.75;76.61
43161;BME280;40968;52.342;5.528;2022-12-04T07:59:39;101966.94;;;0.01;77.01
43161;BME280;40968;52.342;5.528;2022-12-04T08:02:05;101972.25;;;-0.02;76.44
43161;BME280;40968;52.342;5.528;2022-12-04T08:04:32;101830.94;;;-0.82;76.66
43161;BME280;40968;52.342;5.528;2022-12-04T08:06:59;101642.78;;;-2.05;76.88
43161;BME280;40968;52.342;5.528;2022-12-04T08:09:25;101875.41;;;-0.59;76.80
43161;BME280;40968;52.342;5.528;2022-12-04T08:11:53;101713.28;;;-1.55;76.75
43161;BME280;40968;52.342;5.528;2022-12-04T08:14:20;101920.81;;;-0.34;77.05
43161;BME280;40968;52.342;5.528;2022-12-04T08:16:47;101973.97;;;0.02;77.17
43161;BME280;40968;52.342;5.528;2022-12-04T08:19:14;101921.78;;;-0.43;77.12
43161;BME280;40968;52.342;5.528;2022-12-04T08:21:41;101838.88;;;-0.87;77.03
43161;BME280;40968;52.342;5.528;2022-12-04T08:24:08;101894.69;;;-0.54;76.73
43161;BME280;40968;52.342;5.528;2022-12-04T08:26:34;101932.22;;;-0.34;77.23
43161;BME280;40968;52.342;5.528;2022-12-04T08:29:02;101723.91;;;-1.64;77.23
43161;BME280;40968;52.342;5.528;2022-12-04T08:31:31;101899.06;;;-0.53;77.71
43161;BME280;40968;52.342;5.528;2022-12-04T08:33:59;101939.28;;;-0.37;77.11
43161;BME280;40968;52.342;5.528;2022-12-04T08:36:27;102008.13;;;0.10;77.18
43161;BME280;40968;52.342;5.528;2022-12-04T08:38:54;102018.72;;;0.08;76.96
43161;BME280;40968;52.342;5.528;2022-12-04T08:41:22;101728.25;;;-1.60;76.98
43161;BME280;40968;52.342;5.528;2022-12-04T08:43:51;101784.94;;;-1.31;77.05
43161;BME280;40968;52.342;5.528;2022-12-04T08:46:21;101570.59;;;-2.55;77.39
43161;BME280;40968;52.342;5.528;2022-12-04T08:48:48;102016.06;;;0.10;77.38
43161;BME280;40968;52.342;5.528;2022-12-04T08:51:16;101870.31;;;-0.72;77.33
43161;BME280;40968;52.342;5.528;2022-12-04T08:53:43;102025.66;;;0.14;77.38
43161;BME280;40968;52.342;5.528;2022-12-04T08:56:10;101731.66;;;-1.52;77.51
43161;BME280;40968;52.342;5.528;2022-12-04T08:58:37;102022.16;;;0.13;77.44
43161;BME280;40968;52.342;5.528;2022-12-04T09:01:05;102010.75;;;0.11;77.66
43161;BME280;40968;52.342;5.528;2022-12-04T09:03:33;101936.72;;;-0.45;77.48
43161;BME280;40968;52.342;5.528;2022-12-04T09:06:01;101881.72;;;-0.73;77.55
43161;BME280;40968;52.342;5.528;2022-12-04T09:08:29;102020.38;;;0.14;77.68
43161;BME280;40968;52.342;5.528;2022-12-04T09:11:02;102014.22;;;0.15;77.72
43161;BME280;40968;52.342;5.528;2022-12-04T09:13:28;101750.94;;;-1.50;77.67
43161;BME280;40968;52.342;5.528;2022-12-04T09:15:55;101935.75;;;-0.36;78.23
43161;BME280;40968;52.342;5.528;2022-12-04T09:18:22;101973.22;;;-0.11;78.11
43161;BME280;40968;52.342;5.528;2022-12-04T09:20:55;102022.13;;;0.15;78.20
43161;BME280;40968;52.342;5.528;2022-12-04T09:23:23;101892.09;;;-0.57;78.14
43161;BME280;40968;52.342;5.528;2022-12-04T09:25:50;102024.75;;;0.16;78.34
43161;BME280;40968;52.342;5.528;2022-12-04T09:28:16;101934.84;;;-0.34;78.20
43161;BME280;40968;52.342;5.528;2022-12-04T09:30:43;102023.84;;;0.19;78.65
43161;BME280;40968;52.342;5.528;2022-12-04T09:33:10;101531.28;;;-2.66;78.18
43161;BME280;40968;52.342;5.528;2022-12-04T09:35:37;102014.22;;;0.16;78.17
43161;BME280;40968;52.342;5.528;2022-12-04T09:38:05;101790.06;;;-1.16;77.70
43161;BME280;40968;52.342;5.528;2022-12-04T09:40:38;102005.41;;;0.18;78.67
43161;BME280;40968;52.342;5.528;2022-12-04T09:43:19;101961.00;;;-0.17;78.39
43161;BME280;40968;52.342;5.528;2022-12-04T09:45:55;101974.91;;;-0.04;77.76
43161;BME280;40968;52.342;5.528;2022-12-04T09:48:28;101714.13;;;-1.52;77.78
43161;BME280;40968;52.342;5.528;2022-12-04T09:50:57;102012.41;;;0.20;77.92
43161;BME280;40968;52.342;5.528;2022-12-04T09:53:32;101948.78;;;-0.22;77.72
43161;BME280;40968;52.342;5.528;2022-12-04T09:56:06;101883.25;;;-0.53;77.74
43161;BME280;40968;52.342;5.528;2022-12-04T09:58:39;102008.84;;;0.24;77.62
43161;BME280;40968;52.342;5.528;2022-12-04T10:01:18;102001.81;;;0.23;77.43
43161;BME280;40968;52.342;5.528;2022-12-04T10:03:46;101656.63;;;-1.84;76.94
43161;BME280;40968;52.342;5.528;2022-12-04T10:06:17;101698.38;;;-1.55;76.85
43161;BME280;40968;52.342;5.528;2022-12-04T10:08:50;102024.63;;;0.27;76.84
43161;BME280;40968;52.342;5.528;2022-12-04T10:11:26;101990.34;;;0.27;77.23
43161;BME280;40968;52.342;5.528;2022-12-04T10:14:16;102000.00;;;0.28;76.69
43161;BME280;40968;52.342;5.528;2022-12-04T10:17:00;101997.34;;;0.31;76.78
43161;BME280;40968;52.342;5.528;2022-12-04T10:19:38;101995.53;;;0.33;76.33
43161;BME280;40968;52.342;5.528;2022-12-04T10:22:11;101993.78;;;0.32;76.01
43161;BME280;40968;52.342;5.528;2022-12-04T10:24:45;102004.34;;;0.31;76.08
43161;BME280;40968;52.342;5.528;2022-12-04T10:27:18;101686.09;;;-1.53;75.48
43161;BME280;40968;52.342;5.528;2022-12-04T10:29:48;101854.25;;;-0.50;75.80
43161;BME280;40968;52.342;5.528;2022-12-04T10:32:19;101872.53;;;-0.36;75.73
43161;BME280;40968;52.342;5.528;2022-12-04T10:34:49;101916.03;;;-0.04;75.75
43161;BME280;40968;52.342;5.528;2022-12-04T10:37:16;102021.00;;;0.36;76.05
43161;BME280;40968;52.342;5.528;2022-12-04T10:39:49;101965.91;;;0.13;75.85
43161;BME280;40968;52.342;5.528;2022-12-04T10:42:24;101684.25;;;-1.41;75.55
43161;BME280;40968;52.342;5.528;2022-12-04T10:44:52;101829.78;;;-0.58;75.81
43161;BME280;40968;52.342;5.528;2022-12-04T10:47:19;101922.09;;;0.06;75.40
43161;BME280;40968;52.342;5.528;2022-12-04T10:49:51;101978.75;;;0.39;75.68
43161;BME280;40968;52.342;5.528;2022-12-04T10:52:21;101889.19;;;-0.32;75.62
43161;BME280;40968;52.342;5.528;2022-12-04T10:54:52;101672.00;;;-1.44;75.78
43161;BME280;40968;52.342;5.528;2022-12-04T10:57:20;101993.59;;;0.48;75.49
43161;BME280;40968;52.342;5.528;2022-12-04T10:59:51;101754.72;;;-0.93;74.89
43161;BME280;40968;52.342;5.528;2022-12-04T11:02:20;101775.66;;;-0.84;75.33
43161;BME280;40968;52.342;5.528;2022-12-04T11:04:54;101984.84;;;0.46;75.33
43161;BME280;40968;52.342;5.528;2022-12-04T11:07:23;101833.13;;;-0.45;75.35
43161;BME280;40968;52.342;5.528;2022-12-04T11:09:58;101974.22;;;0.49;75.43
43161;BME280;40968;52.342;5.528;2022-12-04T11:12:27;101978.63;;;0.48;75.30
43161;BME280;40968;52.342;5.528;2022-12-04T11:15:07;101773.59;;;-0.60;75.40
43161;BME280;40968;52.342;5.528;2022-12-04T11:17:37;101835.53;;;-0.27;75.30
43161;BME280;40968;52.342;5.528;2022-12-04T11:20:12;101892.94;;;0.16;75.32
43161;BME280;40968;52.342;5.528;2022-12-04T11:22:49;101766.75;;;-0.74;75.71
43161;BME280;40968;52.342;5.528;2022-12-04T11:25:19;101831.94;;;-0.21;75.81
43161;BME280;40968;52.342;5.528;2022-12-04T11:27:48;101925.09;;;0.42;75.31
43161;BME280;40968;52.342;5.528;2022-12-04T11:30:20;101830.06;;;-0.11;75.29
43161;BME280;40968;52.342;5.528;2022-12-04T11:32:47;101956.44;;;0.63;75.41
43161;BME280;40968;52.342;5.528;2022-12-04T11:35:16;101855.31;;;0.04;75.84
43161;BME280;40968;52.342;5.528;2022-12-04T11:37:51;101952.06;;;0.62;75.26
43161;BME280;40968;52.342;5.528;2022-12-04T11:40:21;101742.13;;;-0.67;74.90
43161;BME280;40968;52.342;5.528;2022-12-04T11:43:03;101775.28;;;-0.53;74.62
43161;BME280;40968;52.342;5.528;2022-12-04T11:45:31;101951.38;;;0.48;74.87
43161;BME280;40968;52.342;5.528;2022-12-04T11:47:59;101967.97;;;0.56;74.80
43161;BME280;40968;52.342;5.528;2022-12-04T11:50:34;101949.50;;;0.56;74.83
43161;BME280;40968;52.342;5.528;2022-12-04T11:53:11;101876.41;;;0.04;74.72
43161;BME280;40968;52.342;5.528;2022-12-04T11:55:48;101876.47;;;0.01;74.71
43161;BME280;40968;52.342;5.528;2022-12-04T11:58:36;101942.44;;;0.58;74.88
43161;BME280;40968;52.342;5.528;2022-12-04T12:01:17;101933.63;;;0.59;75.05
43161;BME280;40968;52.342;5.528;2022-12-04T12:03:59;101944.13;;;0.62;74.93
43161;BME280;40968;52.342;5.528;2022-12-04T12:06:34;101752.34;;;-0.45;74.75
43161;BME280;40968;52.342;5.528;2022-12-04T12:09:13;101925.59;;;0.67;74.69
43161;BME280;40968;52.342;5.528;2022-12-04T12:11:47;101837.66;;;0.12;74.60
43161;BME280;40968;52.342;5.528;2022-12-04T12:14:19;101919.34;;;0.73;74.62
43161;BME280;40968;52.342;5.528;2022-12-04T12:16:58;101666.72;;;-0.74;74.82
43161;BME280;40968;52.342;5.528;2022-12-04T12:19:42;101925.50;;;0.75;74.57
43161;BME280;40968;52.342;5.528;2022-12-04T12:22:20;101853.91;;;0.40;74.86
43161;BME280;40968;52.342;5.528;2022-12-04T12:24:56;101908.72;;;0.76;74.38
43161;BME280;40968;52.342;5.528;2022-12-04T12:27:39;101818.13;;;0.22;74.12
43161;BME280;40968;52.342;5.528;2022-12-04T12:30:14;101628.31;;;-0.87;74.47
43161;BME280;40968;52.342;5.528;2022-12-04T12:32:57;101872.16;;;0.54;74.10
43161;BME280;40968;52.342;5.528;2022-12-04T12:35:27;101698.03;;;-0.52;74.48
43161;BME280;40968;52.342;5.528;2022-12-04T12:37:59;101632.72;;;-0.89;74.40
43161;BME280;40968;52.342;5.528;2022-12-04T12:40:32;101845.03;;;0.46;74.29
43161;BME280;40968;52.342;5.528;2022-12-04T12:43:05;101886.66;;;0.81;74.96
43161;BME280;40968;52.342;5.528;2022-12-04T12:45:39;101855.31;;;0.61;74.61
43161;BME280;40968;52.342;5.528;2022-12-04T12:48:18;101886.59;;;0.85;75.00
43161;BME280;40968;52.342;5.528;2022-12-04T12:50:49;101809.16;;;0.36;74.78
43161;BME280;40968;52.342;5.528;2022-12-04T12:53:21;101788.16;;;0.29;74.95
43161;BME280;40968;52.342;5.528;2022-12-04T12:55:51;101749.84;;;0.07;74.84
43161;BME280;40968;52.342;5.528;2022-12-04T12:58:25;101867.28;;;0.82;74.54
43161;BME280;40968;52.342;5.528;2022-12-04T13:00:56;101760.03;;;0.28;74.92
43161;BME280;40968;52.342;5.528;2022-12-04T13:03:31;101889.91;;;0.97;74.59
43161;BME280;40968;52.342;5.528;2022-12-04T13:06:08;101823.66;;;0.61;74.62
43161;BME280;40968;52.342;5.528;2022-12-04T13:08:40;101632.09;;;-0.47;75.13